Terminal Aerodrome Forecast
Issued by NWS

Current Version | Previous Version | Text Only | Print | Product List | Glossary On
Versions: 1 2 3 4 5 6 7 8 9 10 11 12
000
FTUS45 KGJT 202335
TAFMTJ
TAF
KMTJ 202335Z 2100/2124 22012G25KT P6SM FEW110
     FM210200 23018G30KT P6SM VCSH BKN090 BKN110
     FM210500 28012KT P6SM VCSH BKN050 OVC070
     FM210700 28008KT P6SM VCSH OVC060
     FM210900 25008KT P6SM VCSH SCT060 BKN090
     FM211100 26008KT P6SM FEW060 SCT120=

USA.gov is the U.S. government's official web portal to all federal, state and local government web resources and services.